createdAt,value
2019-02-25T00:02:16.606Z,3.40
2019-02-25T00:04:45.059Z,3.40
2019-02-25T00:07:13.538Z,3.40
2019-02-25T00:09:42.004Z,3.40
2019-02-25T00:12:10.498Z,3.40
2019-02-25T00:14:39.029Z,3.40
2019-02-25T00:17:07.527Z,3.40
2019-02-25T00:19:35.989Z,3.30
2019-02-25T00:22:04.810Z,3.30
2019-02-25T00:24:33.274Z,3.30
2019-02-25T00:27:01.766Z,3.30
2019-02-25T00:29:30.226Z,3.30
2019-02-25T00:31:58.775Z,3.30
2019-02-25T00:34:27.245Z,3.30
2019-02-25T00:36:55.733Z,3.30
2019-02-25T00:39:24.194Z,3.30
2019-02-25T00:41:52.744Z,3.30
2019-02-25T00:44:21.222Z,3.30
2019-02-25T00:46:49.705Z,3.30
2019-02-25T00:49:18.164Z,3.30
2019-02-25T00:51:46.701Z,3.30
2019-02-25T00:54:15.176Z,3.20
2019-02-25T00:56:43.637Z,3.20
2019-02-25T00:59:12.179Z,3.20
2019-02-25T01:01:40.658Z,3.20
2019-02-25T01:04:09.218Z,3.20
2019-02-25T01:06:37.686Z,3.30
2019-02-25T01:09:07.004Z,3.20
2019-02-25T01:11:35.481Z,3.20
2019-02-25T01:14:04.797Z,3.20
2019-02-25T01:16:33.257Z,3.20
2019-02-25T01:19:01.737Z,3.20
2019-02-25T01:21:30.216Z,3.20
2019-02-25T01:23:58.711Z,3.20
2019-02-25T01:26:27.163Z,3.20
2019-02-25T01:28:55.659Z,3.20
2019-02-25T01:31:24.127Z,3.20
2019-02-25T01:33:52.642Z,3.10
2019-02-25T01:36:21.129Z,3.10
2019-02-25T01:38:49.606Z,3.10
2019-02-25T01:41:18.071Z,3.10
2019-02-25T01:43:46.550Z,3.10
2019-02-25T01:46:15.015Z,3.10
2019-02-25T01:48:43.508Z,3.10
2019-02-25T01:51:11.968Z,3.10
2019-02-25T01:53:40.446Z,3.10
2019-02-25T01:56:09.086Z,3.00
2019-02-25T01:58:37.564Z,3.00
2019-02-25T02:01:06.035Z,3.00
2019-02-25T02:03:34.510Z,3.00
2019-02-25T02:06:02.980Z,3.00
2019-02-25T02:08:31.449Z,3.00
2019-02-25T02:10:59.911Z,3.00
2019-02-25T02:13:28.402Z,3.00
2019-02-25T02:15:56.853Z,3.00
2019-02-25T02:18:25.338Z,3.00
2019-02-25T02:20:53.874Z,2.90
2019-02-25T02:23:22.356Z,2.90
2019-02-25T02:25:50.815Z,2.90
2019-02-25T02:28:19.289Z,2.90
2019-02-25T02:30:47.769Z,2.90
2019-02-25T02:33:16.256Z,2.90
2019-02-25T02:35:44.728Z,2.90
2019-02-25T02:38:13.265Z,2.80
2019-02-25T02:40:41.754Z,2.80
2019-02-25T02:43:10.235Z,2.80
2019-02-25T02:45:56.866Z,2.80
2019-02-25T02:48:31.048Z,2.80
2019-02-25T02:50:59.544Z,2.80
2019-02-25T02:53:28.067Z,2.80
2019-02-25T02:55:56.540Z,2.80
2019-02-25T02:58:25.009Z,2.70
2019-02-25T03:00:53.477Z,2.80
2019-02-25T03:03:21.966Z,2.70
2019-02-25T03:05:50.435Z,2.70
2019-02-25T03:08:18.913Z,2.80
2019-02-25T03:10:47.378Z,2.70
2019-02-25T03:13:15.855Z,2.70
2019-02-25T03:15:44.396Z,2.70
2019-02-25T03:18:12.865Z,2.70
2019-02-25T03:20:41.398Z,2.70
2019-02-25T03:23:09.883Z,2.70
2019-02-25T03:25:38.350Z,2.60
2019-02-25T03:28:06.841Z,2.60
2019-02-25T03:30:35.313Z,2.60
2019-02-25T03:33:03.794Z,2.60
2019-02-25T03:35:32.327Z,2.50
2019-02-25T03:38:00.822Z,2.50
2019-02-25T03:40:29.290Z,2.50
2019-02-25T03:42:57.747Z,2.50
2019-02-25T03:45:26.223Z,2.50
2019-02-25T03:47:54.697Z,2.50
2019-02-25T03:50:23.178Z,2.50
2019-02-25T03:52:51.635Z,2.50
2019-02-25T03:55:21.362Z,2.50
2019-02-25T03:57:50.010Z,2.50
2019-02-25T04:00:23.335Z,2.50
2019-02-25T04:02:51.970Z,2.50
2019-02-25T04:05:20.527Z,2.50
2019-02-25T04:07:48.982Z,2.50
2019-02-25T04:10:17.543Z,2.50
2019-02-25T04:12:46.067Z,2.50
2019-02-25T04:15:23.475Z,2.40
2019-02-25T04:17:52.021Z,2.50
2019-02-25T04:20:20.516Z,2.40
2019-02-25T04:22:48.984Z,2.40
2019-02-25T04:25:17.554Z,2.40
2019-02-25T04:27:46.084Z,2.40
2019-02-25T04:30:15.994Z,2.40
2019-02-25T04:32:44.474Z,2.40
2019-02-25T04:35:14.065Z,2.40
2019-02-25T04:37:42.690Z,2.40
2019-02-25T04:40:14.979Z,2.40
2019-02-25T04:42:43.512Z,2.40
2019-02-25T04:45:17.029Z,2.40
2019-02-25T04:47:45.495Z,2.40
2019-02-25T04:50:15.514Z,2.40
2019-02-25T04:52:43.972Z,2.40
2019-02-25T04:55:13.607Z,2.40
2019-02-25T04:57:42.073Z,2.30
2019-02-25T05:00:16.525Z,2.30
2019-02-25T05:02:45.066Z,2.30
2019-02-25T05:05:13.793Z,2.30
2019-02-25T05:07:42.261Z,2.30
2019-02-25T05:10:12.783Z,2.30
2019-02-25T05:12:42.893Z,2.30
2019-02-25T05:15:13.255Z,2.20
2019-02-25T05:17:41.727Z,2.20
2019-02-25T05:20:10.359Z,2.20
2019-02-25T05:22:38.866Z,2.30
2019-02-25T05:25:12.103Z,2.20
2019-02-25T05:27:40.561Z,2.20
2019-02-25T05:30:11.873Z,2.20
2019-02-25T05:32:40.339Z,2.20
2019-02-25T05:35:10.660Z,2.20
2019-02-25T05:37:39.130Z,2.30
2019-02-25T05:40:13.623Z,2.30
2019-02-25T05:42:42.338Z,2.20
2019-02-25T05:45:11.851Z,2.20
2019-02-25T05:47:40.314Z,2.20
2019-02-25T05:50:16.429Z,2.20
2019-02-25T05:52:44.902Z,2.20
2019-02-25T05:55:17.066Z,2.20
2019-02-25T05:57:45.784Z,2.20
2019-02-25T06:00:17.682Z,2.20
2019-02-25T06:02:46.213Z,2.20
2019-02-25T06:05:14.780Z,2.10
2019-02-25T06:07:43.304Z,2.20
2019-02-25T06:10:13.208Z,2.20
2019-02-25T06:12:41.751Z,2.20
2019-02-25T06:15:15.158Z,2.20
2019-02-25T06:17:43.654Z,2.20
2019-02-25T06:20:16.068Z,2.20
2019-02-25T06:22:44.980Z,2.20
2019-02-25T06:25:14.705Z,2.30
2019-02-25T06:27:43.176Z,2.30
2019-02-25T06:30:22.594Z,2.30
2019-02-25T06:32:51.402Z,2.40
2019-02-25T06:35:20.207Z,2.50
2019-02-25T06:37:48.671Z,2.50
2019-02-25T06:40:20.917Z,2.50
2019-02-25T06:42:49.452Z,2.50
2019-02-25T06:45:31.185Z,2.60
2019-02-25T06:47:59.910Z,2.70
2019-02-25T06:50:28.407Z,2.70
2019-02-25T06:52:56.941Z,2.70
2019-02-25T06:55:25.425Z,2.80
2019-02-25T06:57:53.891Z,2.80
2019-02-25T07:00:23.403Z,2.90
2019-02-25T07:02:52.047Z,2.90
2019-02-25T07:05:24.937Z,3.00
2019-02-25T07:07:55.047Z,3.00
2019-02-25T07:10:37.075Z,3.10
2019-02-25T07:13:12.900Z,3.10
2019-02-25T07:15:59.487Z,3.20
2019-02-25T07:18:41.725Z,3.20
2019-02-25T07:21:14.565Z,3.30
2019-02-25T07:23:50.661Z,3.40
2019-02-25T07:26:23.747Z,3.40
2019-02-25T07:28:53.915Z,3.50
2019-02-25T07:31:26.549Z,3.50
2019-02-25T07:33:56.661Z,3.60
2019-02-25T07:36:44.723Z,3.60
2019-02-25T07:39:14.818Z,3.70
2019-02-25T07:41:47.425Z,3.70
2019-02-25T07:44:17.591Z,3.80
2019-02-25T07:46:47.704Z,3.80
2019-02-25T07:49:29.830Z,3.90
2019-02-25T07:52:02.691Z,4.00
2019-02-25T07:54:50.902Z,4.00
2019-02-25T07:57:37.050Z,4.10
2019-02-25T08:00:15.986Z,4.10
2019-02-25T08:03:01.214Z,4.20
2019-02-25T08:05:43.080Z,4.30
2019-02-25T08:08:28.508Z,4.40
2019-02-25T08:10:58.610Z,4.50
2019-02-25T08:13:31.466Z,4.50
2019-02-25T08:16:04.039Z,4.60
2019-02-25T08:18:40.400Z,4.70
2019-02-25T08:21:25.923Z,4.70
2019-02-25T08:23:58.468Z,4.80
2019-02-25T08:26:31.600Z,4.90
2019-02-25T08:29:04.500Z,5.00
2019-02-25T08:31:37.660Z,5.00
2019-02-25T08:34:07.764Z,5.10
2019-02-25T08:37:14.224Z,5.20
2019-02-25T08:39:58.819Z,5.20
2019-02-25T08:42:31.087Z,5.30
2019-02-25T08:45:01.347Z,5.40
2019-02-25T08:47:31.462Z,5.50
2019-02-25T08:49:59.939Z,5.50
2019-02-25T08:52:28.491Z,5.60
2019-02-25T08:54:57.022Z,5.70
2019-02-25T08:57:25.559Z,5.80
2019-02-25T08:59:54.101Z,5.90
2019-02-25T09:02:22.655Z,6.00
2019-02-25T09:04:51.298Z,6.00
2019-02-25T09:07:19.859Z,6.20
2019-02-25T09:09:48.339Z,6.30
2019-02-25T09:12:16.887Z,6.40
2019-02-25T09:14:45.342Z,6.40
2019-02-25T09:17:15.980Z,6.50
2019-02-25T09:19:44.001Z,6.60
2019-02-25T09:22:12.489Z,6.70
2019-02-25T09:24:40.997Z,6.80
2019-02-25T09:27:09.528Z,6.90
2019-02-25T09:29:37.993Z,7.00
2019-02-25T09:32:06.473Z,7.10
2019-02-25T09:34:34.949Z,7.10
2019-02-25T09:37:03.447Z,7.20
2019-02-25T09:39:31.916Z,7.30
2019-02-25T09:42:02.126Z,7.40
2019-02-25T09:44:31.323Z,7.40
2019-02-25T09:46:59.775Z,7.50
2019-02-25T09:49:28.277Z,7.60
2019-02-25T09:51:56.804Z,7.70
2019-02-25T09:54:25.272Z,7.80
2019-02-25T09:56:54.360Z,7.90
2019-02-25T09:59:23.491Z,7.90
2019-02-25T10:01:52.538Z,8.00
2019-02-25T10:04:21.620Z,8.10
2019-02-25T10:06:50.661Z,8.10
2019-02-25T10:09:19.709Z,8.20
2019-02-25T10:11:48.826Z,8.30
2019-02-25T10:14:17.902Z,8.40
2019-02-25T10:16:46.938Z,8.40
2019-02-25T10:19:16.000Z,8.50
2019-02-25T10:21:45.033Z,8.70
2019-02-25T10:24:14.100Z,8.70
2019-02-25T10:26:43.142Z,8.80
2019-02-25T10:29:12.302Z,8.90
2019-02-25T10:31:42.185Z,8.90
2019-02-25T10:34:12.180Z,9.00
2019-02-25T10:36:41.236Z,9.10
2019-02-25T10:39:15.407Z,9.20
2019-02-25T10:41:44.110Z,9.20
2019-02-25T10:44:13.195Z,9.30
2019-02-25T10:46:42.813Z,9.40
2019-02-25T10:49:12.567Z,9.50
2019-02-25T10:51:43.348Z,9.50
2019-02-25T10:54:12.557Z,9.50
2019-02-25T10:56:44.723Z,9.60
2019-02-25T10:59:13.780Z,9.60
2019-02-25T11:01:43.363Z,9.60
2019-02-25T11:04:15.283Z,9.70
2019-02-25T11:06:44.475Z,9.70
2019-02-25T11:09:15.858Z,9.70
2019-02-25T11:11:46.367Z,9.80
2019-02-25T11:14:15.425Z,9.80
2019-02-25T11:16:46.001Z,9.90
2019-02-25T11:19:15.273Z,10.00
2019-02-25T11:21:44.375Z,10.10
2019-02-25T11:24:14.469Z,10.20
2019-02-25T11:26:44.237Z,10.30
2019-02-25T11:29:13.868Z,10.40
2019-02-25T11:31:45.227Z,10.60
2019-02-25T11:34:14.964Z,10.60
2019-02-25T11:36:44.014Z,10.70
2019-02-25T11:39:14.918Z,10.80
2019-02-25T11:41:43.986Z,10.90
2019-02-25T11:44:13.047Z,11.00
2019-02-25T11:46:42.100Z,11.10
2019-02-25T11:49:11.170Z,11.20
2019-02-25T11:51:40.254Z,11.30
2019-02-25T11:54:09.380Z,11.30
2019-02-25T11:56:38.455Z,11.40
2019-02-25T11:59:07.528Z,11.40
2019-02-25T12:01:36.681Z,11.50
2019-02-25T12:04:05.804Z,11.50
2019-02-25T12:06:34.866Z,11.50
2019-02-25T12:09:04.791Z,11.50
2019-02-25T12:11:33.966Z,11.60
2019-02-25T12:14:03.058Z,11.70
2019-02-25T12:16:32.113Z,11.70
2019-02-25T12:19:01.184Z,11.60
2019-02-25T12:21:30.257Z,11.70
2019-02-25T12:23:59.328Z,11.70
2019-02-25T12:26:28.389Z,11.60
2019-02-25T12:28:57.460Z,11.60
2019-02-25T12:31:26.515Z,11.50
2019-02-25T12:33:55.611Z,11.50
2019-02-25T12:36:24.689Z,11.60
2019-02-25T12:38:53.800Z,11.70
2019-02-25T12:41:22.855Z,11.80
2019-02-25T12:43:51.937Z,11.80
2019-02-25T12:46:21.005Z,11.80
2019-02-25T12:48:50.092Z,11.90
2019-02-25T12:51:19.155Z,11.80
2019-02-25T12:53:48.209Z,11.80
2019-02-25T12:56:17.292Z,11.80
2019-02-25T12:58:46.359Z,11.80
2019-02-25T13:01:15.441Z,11.80
2019-02-25T13:03:44.511Z,11.90
2019-02-25T13:06:13.573Z,11.90
2019-02-25T13:08:42.639Z,12.00
2019-02-25T13:11:11.696Z,11.90
2019-02-25T13:13:40.757Z,12.00
2019-02-25T13:16:09.827Z,12.00
2019-02-25T13:18:38.899Z,12.00
2019-02-25T13:21:07.966Z,12.00
2019-02-25T13:23:37.041Z,12.00
2019-02-25T13:26:07.634Z,12.10
2019-02-25T13:28:36.953Z,12.10
2019-02-25T13:31:07.645Z,12.10
2019-02-25T13:33:36.989Z,12.20
2019-02-25T13:36:09.220Z,12.20
2019-02-25T13:38:38.351Z,12.30
2019-02-25T13:41:07.480Z,12.50
2019-02-25T13:43:36.631Z,12.70
2019-02-25T13:46:05.768Z,12.80
2019-02-25T13:48:34.898Z,13.00
2019-02-25T13:51:04.141Z,13.10
2019-02-25T13:53:33.268Z,13.30
2019-02-25T13:56:02.572Z,13.40
2019-02-25T13:58:31.706Z,13.50
2019-02-25T14:01:00.952Z,13.60
2019-02-25T14:03:30.072Z,13.70
2019-02-25T14:05:59.287Z,13.80
2019-02-25T14:08:28.615Z,13.90
2019-02-25T14:10:57.846Z,14.00
2019-02-25T14:13:26.966Z,14.10
2019-02-25T14:15:56.130Z,14.10
2019-02-25T14:18:25.360Z,14.20
2019-02-25T14:20:54.561Z,14.30
2019-02-25T14:23:23.920Z,14.30
2019-02-25T14:25:53.180Z,14.40
2019-02-25T14:28:22.379Z,14.40
2019-02-25T14:30:51.704Z,14.40
2019-02-25T14:33:23.434Z,14.50
2019-02-25T14:35:53.148Z,14.50
2019-02-25T14:38:23.399Z,14.60
2019-02-25T14:40:54.020Z,14.60
2019-02-25T14:43:25.471Z,14.60
2019-02-25T14:45:56.829Z,14.60
2019-02-25T14:48:27.754Z,14.50
2019-02-25T14:50:56.789Z,14.40
2019-02-25T14:53:25.925Z,14.40
2019-02-25T14:55:57.779Z,14.40
2019-02-25T14:58:26.100Z,14.40
2019-02-25T15:00:55.317Z,14.40
2019-02-25T15:03:25.281Z,14.40
2019-02-25T15:05:57.089Z,14.50
2019-02-25T15:08:28.338Z,14.50
2019-02-25T15:11:00.012Z,14.50
2019-02-25T15:13:28.638Z,14.60
2019-02-25T15:15:59.160Z,14.70
2019-02-25T15:18:31.454Z,14.80
2019-02-25T15:21:02.537Z,14.90
2019-02-25T15:23:31.388Z,15.00
2019-02-25T15:26:05.252Z,15.10
2019-02-25T15:28:31.304Z,15.10
2019-02-25T15:31:04.135Z,15.10
2019-02-25T15:33:31.553Z,15.10
2019-02-25T15:36:01.974Z,15.00
2019-02-25T15:38:32.719Z,15.00
2019-02-25T15:41:02.694Z,14.90
2019-02-25T15:43:32.830Z,14.90
2019-02-25T15:46:02.424Z,14.80
2019-02-25T15:48:32.855Z,14.80
2019-02-25T15:51:02.408Z,14.60
2019-02-25T15:53:32.580Z,14.50
2019-02-25T15:56:03.588Z,14.30
2019-02-25T15:58:32.646Z,14.10
2019-02-25T16:01:01.791Z,14.00
2019-02-25T16:03:32.228Z,13.80
2019-02-25T16:06:03.958Z,13.60
2019-02-25T16:08:33.429Z,13.50
2019-02-25T16:11:03.061Z,13.30
2019-02-25T16:13:33.444Z,13.20
2019-02-25T16:16:02.761Z,13.00
2019-02-25T16:18:31.921Z,12.80
2019-02-25T16:21:01.052Z,12.80
2019-02-25T16:23:32.114Z,12.70
2019-02-25T16:26:01.151Z,12.60
2019-02-25T16:28:31.214Z,12.50
2019-02-25T16:31:01.081Z,12.40
2019-02-25T16:33:31.439Z,12.20
2019-02-25T16:36:02.984Z,12.10
2019-02-25T16:38:34.141Z,11.90
2019-02-25T16:41:03.773Z,11.70
2019-02-25T16:43:33.688Z,11.50
2019-02-25T16:46:06.187Z,11.40
2019-02-25T16:48:33.572Z,11.30
2019-02-25T16:51:03.372Z,11.10
2019-02-25T16:53:36.929Z,11.00
2019-02-25T16:56:05.666Z,10.90
2019-02-25T16:58:36.445Z,10.80
2019-02-25T17:01:07.980Z,10.80
2019-02-25T17:03:39.117Z,10.70
2019-02-25T17:06:09.220Z,10.70
2019-02-25T17:08:38.742Z,10.60
2019-02-25T17:11:07.881Z,10.50
2019-02-25T17:13:39.296Z,10.40
2019-02-25T17:16:17.868Z,10.30
2019-02-25T17:18:39.245Z,10.20
2019-02-25T17:21:08.624Z,10.10
2019-02-25T17:23:38.778Z,10.00
2019-02-25T17:26:09.968Z,9.90
2019-02-25T17:28:38.912Z,9.90
2019-02-25T17:31:09.025Z,9.80
2019-02-25T17:33:38.931Z,9.70
2019-02-25T17:36:09.783Z,9.70
2019-02-25T17:38:39.034Z,9.60
2019-02-25T17:41:10.780Z,9.60
2019-02-25T17:43:42.551Z,9.50
2019-02-25T17:46:11.657Z,9.40
2019-02-25T17:48:41.861Z,9.40
2019-02-25T17:51:11.136Z,9.40
2019-02-25T17:53:40.187Z,9.30
2019-02-25T17:56:09.303Z,9.30
2019-02-25T17:58:40.717Z,9.20
2019-02-25T18:01:11.092Z,9.10
2019-02-25T18:03:42.203Z,9.00
2019-02-25T18:06:11.100Z,9.00
2019-02-25T18:08:40.226Z,8.90
2019-02-25T18:11:09.382Z,8.80
2019-02-25T18:13:38.534Z,8.70
2019-02-25T18:16:08.545Z,8.70
2019-02-25T18:18:39.078Z,8.70
2019-02-25T18:21:09.358Z,8.60
2019-02-25T18:23:38.492Z,8.60
2019-02-25T18:26:07.719Z,8.50
2019-02-25T18:28:37.377Z,8.50
2019-02-25T18:31:20.821Z,8.40
2019-02-25T18:33:51.131Z,8.40
2019-02-25T18:36:21.855Z,8.30
2019-02-25T18:38:52.713Z,8.20
2019-02-25T18:41:23.229Z,8.10
2019-02-25T18:43:53.596Z,8.10
2019-02-25T18:46:23.364Z,8.00
2019-02-25T18:48:53.264Z,8.00
2019-02-25T18:51:24.175Z,7.90
2019-02-25T18:53:54.694Z,7.80
2019-02-25T18:56:23.989Z,7.80
2019-02-25T18:58:53.778Z,7.80
2019-02-25T19:01:24.117Z,7.70
2019-02-25T19:03:54.771Z,7.70
2019-02-25T19:06:25.606Z,7.70
2019-02-25T19:08:56.149Z,7.70
2019-02-25T19:11:27.751Z,7.70
2019-02-25T19:13:59.456Z,7.70
2019-02-25T19:16:26.864Z,7.80
2019-02-25T19:18:56.009Z,7.80
2019-02-25T19:21:26.030Z,7.80
2019-02-25T19:23:56.149Z,7.80
2019-02-25T19:26:24.875Z,7.80
2019-02-25T19:28:54.723Z,7.90
2019-02-25T19:31:26.130Z,7.90
2019-02-25T19:33:54.416Z,7.90
2019-02-25T19:36:25.623Z,7.90
2019-02-25T19:38:53.855Z,7.90
2019-02-25T19:41:25.870Z,7.80
2019-02-25T19:43:59.205Z,7.70
2019-02-25T19:46:24.015Z,7.70
2019-02-25T19:48:54.253Z,7.60
2019-02-25T19:51:25.261Z,7.60
2019-02-25T19:53:54.335Z,7.60
2019-02-25T19:56:22.940Z,7.60
2019-02-25T19:58:51.434Z,7.70
2019-02-25T20:01:20.484Z,7.80
2019-02-25T20:03:49.545Z,7.80
2019-02-25T20:06:20.920Z,7.80
2019-02-25T20:08:51.032Z,7.80
2019-02-25T20:11:19.700Z,7.80
2019-02-25T20:13:48.256Z,7.90
2019-02-25T20:16:18.720Z,7.90
2019-02-25T20:18:48.392Z,7.90
2019-02-25T20:21:17.525Z,7.90
2019-02-25T20:23:47.946Z,7.90
2019-02-25T20:26:17.742Z,7.90
2019-02-25T20:28:48.766Z,7.80
2019-02-25T20:31:17.640Z,7.80
2019-02-25T20:33:46.771Z,7.80
2019-02-25T20:36:19.246Z,7.90
2019-02-25T20:38:46.046Z,7.80
2019-02-25T20:41:17.974Z,7.80
2019-02-25T20:43:47.221Z,7.80
2019-02-25T20:46:15.560Z,7.70
2019-02-25T20:48:46.512Z,7.70
2019-02-25T20:51:14.246Z,7.70
2019-02-25T20:53:42.716Z,7.60
2019-02-25T20:56:11.191Z,7.50
2019-02-25T20:58:43.069Z,7.50
2019-02-25T21:01:12.078Z,7.40
2019-02-25T21:03:43.866Z,7.30
2019-02-25T21:06:12.659Z,7.30
2019-02-25T21:08:42.349Z,7.10
2019-02-25T21:11:13.381Z,7.10
2019-02-25T21:13:42.384Z,7.10
2019-02-25T21:16:10.851Z,7.00
2019-02-25T21:18:39.333Z,7.00
2019-02-25T21:21:11.253Z,7.00
2019-02-25T21:23:38.172Z,7.00
2019-02-25T21:26:08.819Z,7.00
2019-02-25T21:28:38.138Z,7.00
2019-02-25T21:31:11.603Z,6.90
2019-02-25T21:33:37.331Z,6.90
2019-02-25T21:36:05.793Z,6.80
2019-02-25T21:38:34.277Z,6.80
2019-02-25T21:41:02.765Z,6.70
2019-02-25T21:43:31.249Z,6.60
2019-02-25T21:46:01.558Z,6.50
2019-02-25T21:48:32.424Z,6.50
2019-02-25T21:51:02.334Z,6.50
2019-02-25T21:53:30.403Z,6.40
2019-02-25T21:56:04.228Z,6.40
2019-02-25T21:58:29.078Z,6.40
2019-02-25T22:00:57.542Z,6.50
2019-02-25T22:03:26.353Z,6.60
2019-02-25T22:05:56.225Z,6.60
2019-02-25T22:08:26.732Z,6.70
2019-02-25T22:10:55.498Z,6.70
2019-02-25T22:13:23.976Z,6.80
2019-02-25T22:15:52.443Z,6.80
2019-02-25T22:18:20.930Z,6.80
2019-02-25T22:20:51.381Z,6.90
2019-02-25T22:23:21.982Z,6.90
2019-02-25T22:25:49.862Z,6.90
2019-02-25T22:28:18.351Z,6.90
2019-02-25T22:30:47.484Z,6.90
2019-02-25T22:33:26.761Z,6.80
2019-02-25T22:35:49.400Z,6.80
2019-02-25T22:38:17.985Z,6.80
2019-02-25T22:40:46.632Z,6.70
2019-02-25T22:43:16.405Z,6.70
2019-02-25T22:45:45.315Z,6.60
2019-02-25T22:48:14.542Z,6.60
2019-02-25T22:50:44.000Z,6.50
2019-02-25T22:53:12.482Z,6.50
2019-02-25T22:55:42.672Z,6.40
2019-02-25T22:58:12.755Z,6.40
2019-02-25T23:00:46.040Z,6.40
2019-02-25T23:03:17.333Z,6.40
2019-02-25T23:05:45.981Z,6.30
2019-02-25T23:08:15.480Z,6.30
2019-02-25T23:10:46.870Z,6.30
2019-02-25T23:13:15.590Z,6.20
2019-02-25T23:15:44.769Z,6.20
2019-02-25T23:18:16.645Z,6.10
2019-02-25T23:20:44.536Z,6.10
2019-02-25T23:23:12.990Z,6.00
2019-02-25T23:25:41.482Z,6.00
2019-02-25T23:28:09.947Z,6.00
2019-02-25T23:30:39.647Z,5.90
2019-02-25T23:33:11.803Z,5.90
2019-02-25T23:35:40.813Z,5.90
2019-02-25T23:38:08.777Z,5.80
2019-02-25T23:40:38.224Z,5.80
2019-02-25T23:43:09.559Z,5.70
2019-02-25T23:45:38.320Z,5.70
2019-02-25T23:48:08.891Z,5.70
2019-02-25T23:50:38.136Z,5.60
2019-02-25T23:53:06.636Z,5.60
2019-02-25T23:55:35.159Z,5.60
2019-02-25T23:58:07.871Z,5.60
